X  Schlie├čen METAR Luftfahrt Wetterdaten     EHKD De Kooy Airport
Temperatur
17°C Temperatur
13°C Taupunkt
77% Feuchtigkeit



Wind
21 KM/S
13 MPS
6 M/S
11 KTS



250°
WSW
Aktuelle Wetterlage

Meistens vereinzelte Wolken Meistens vereinzelte Wolken
Luftdruck 1012.87 (hPa) - 29.91 (inHg)
Sichtweite 6 (Meile) - 9.7 (Km)
Flughafen
Flughafen Code EHKD

Position : De Kooy Airport
Entfernung: 34 (Km)

Metar:
EHKD 221555Z AUTO 25011KT 220V280 9999 SCT012 BKN018 17/13 Q1013 GRN TEMPO SCT013

Zeit: 22-06-2024 17:55 CEST